Wetterdaten: Woche 25.05.20 - 31.05.20 (KW22)
Datum Zeit Temp. Aussen Temp. o. S. Temp +5cm Feuchte Auss Luftdruck Regen Sonnenschein Regendauer Solar Windben Empfang
25.05.2020 00:00 12,9 C 11,7 C 11,7 C 96 % 1031,9 hPa 0,0 l/m 0,00 h 0,07 h 0 W/m 0,4 km/h (0 Bft) 95,53 %
25.05.2020 01:00 12,8 C 11,7 C 11,7 C 97 % 1032,0 hPa 0,0 l/m 0,00 h 0,00 h 0 W/m 1,0 km/h (0 Bft) 97,58 %
25.05.2020 02:00 12,7 C 11,7 C 11,7 C 97 % 1031,9 hPa 0,0 l/m 0,00 h 0,00 h 0 W/m 0,6 km/h (0 Bft) 96,18 %
25.05.2020 03:00 12,7 C 11,7 C 11,7 C 97 % 1031,9 hPa 0,0 l/m 0,00 h 0,00 h 0 W/m 1,2 km/h (1 Bft) 97,23 %
25.05.2020 04:00 12,6 C 11,7 C 11,7 C 97 % 1031,9 hPa 0,0 l/m 0,00 h 0,00 h 0 W/m 2,8 km/h (1 Bft) 98,43 %
25.05.2020 05:00 12,5 C 11,7 C 11,1 C 97 % 1032,2 hPa 0,0 l/m 0,00 h 0,00 h 7 W/m 0,6 km/h (0 Bft) 97,71 %
25.05.2020 06:00 12,4 C 12,0 C 11,5 C 97 % 1032,4 hPa 0,0 l/m 0,00 h 0,00 h 22 W/m 1,4 km/h (1 Bft) 95,99 %
25.05.2020 07:00 12,8 C 12,7 C 12,0 C 97 % 1032,8 hPa 0,0 l/m 0,00 h 0,00 h 53 W/m 1,4 km/h (1 Bft) 97,96 %
25.05.2020 08:00 13,4 C 13,7 C 12,6 C 96 % 1033,2 hPa 0,0 l/m 0,00 h 0,00 h 95 W/m 3,6 km/h (1 Bft) 97,72 %
25.05.2020 09:00 14,5 C 16,1 C 14,3 C 93 % 1033,5 hPa 0,0 l/m 0,00 h 0,00 h 230 W/m 7,6 km/h (2 Bft) 97,92 %
25.05.2020 10:00 16,5 C 20,3 C 19,2 C 86 % 1033,7 hPa 0,0 l/m 0,70 h 0,00 h 433 W/m 9,1 km/h (2 Bft) 95,96 %
25.05.2020 11:00 18,9 C 23,1 C 20,0 C 77 % 1033,8 hPa 0,0 l/m 0,63 h 0,00 h 520 W/m 7,5 km/h (2 Bft) 99,00 %
25.05.2020 12:00 20,0 C 22,1 C 19,5 C 71 % 1033,7 hPa 0,0 l/m 0,23 h 0,00 h 362 W/m 11,7 km/h (2 Bft) 98,31 %
25.05.2020 13:00 19,2 C 19,8 C 17,8 C 71 % 1033,9 hPa 0,0 l/m 0,00 h 0,00 h 252 W/m 10,1 km/h (2 Bft) 96,72 %
25.05.2020 14:00 19,5 C 21,5 C 18,6 C 71 % 1033,8 hPa 0,0 l/m 0,27 h 0,00 h 338 W/m 7,7 km/h (2 Bft) 97,22 %
25.05.2020 15:00 20,5 C 23,4 C 19,2 C 69 % 1033,6 hPa 0,0 l/m 0,43 h 0,00 h 465 W/m 7,3 km/h (2 Bft) 96,94 %
25.05.2020 16:00 22,8 C 26,7 C 20,1 C 62 % 1033,2 hPa 0,0 l/m 0,93 h 0,00 h 736 W/m 10,4 km/h (2 Bft) 98,72 %
25.05.2020 17:00 23,5 C 24,2 C 20,4 C 57 % 1033,1 hPa 0,0 l/m 0,43 h 0,00 h 388 W/m 8,4 km/h (2 Bft) 98,22 %
25.05.2020 18:00 21,6 C 22,4 C 18,8 C 60 % 1033,2 hPa 0,0 l/m 0,77 h 0,00 h 356 W/m 9,3 km/h (2 Bft) 95,33 %
25.05.2020 19:00 20,6 C 19,2 C 17,3 C 61 % 1033,4 hPa 0,0 l/m 0,43 h 0,00 h 155 W/m 6,4 km/h (2 Bft) 98,93 %
25.05.2020 20:00 18,7 C 17,2 C 16,4 C 65 % 1033,6 hPa 0,0 l/m 0,00 h 0,00 h 34 W/m 6,7 km/h (2 Bft) 97,95 %
25.05.2020 21:00 17,3 C 15,2 C 14,8 C 70 % 1034,2 hPa 0,0 l/m 0,00 h 0,00 h 9 W/m 2,6 km/h (1 Bft) 96,73 %
25.05.2020 22:00 15,9 C 13,6 C 13,1 C 73 % 1034,5 hPa 0,0 l/m 0,00 h 0,00 h 0 W/m 0,3 km/h (0 Bft) 97,43 %
25.05.2020 23:00 14,6 C 12,4 C 12,0 C 77 % 1034,5 hPa 0,0 l/m 0,00 h 0,00 h 0 W/m 0,0 km/h (0 Bft) 97,22 %
26.05.2020 00:00 13,4 C 11,2 C 10,7 C 79 % 1034,7 hPa 0,0 l/m 0,00 h 0,00 h 0 W/m 0,0 km/h (0 Bft) 98,04 %
26.05.2020 01:00 12,3 C 10,1 C 9,8 C 82 % 1034,7 hPa 0,0 l/m 0,00 h 0,00 h 0 W/m 0,0 km/h (0 Bft) 98,36 %
26.05.2020 02:00 11,3 C 8,9 C 8,7 C 84 % 1034,7 hPa 0,0 l/m 0,00 h 0,00 h 0 W/m 0,0 km/h (0 Bft) 98,41 %
26.05.2020 03:00 10,3 C 8,1 C 8,0 C 86 % 1034,9 hPa 0,0 l/m 0,00 h 0,00 h 0 W/m 0,0 km/h (0 Bft) 94,80 %
26.05.2020 04:00 9,5 C 7,4 C 7,5 C 87 % 1034,9 hPa 0,0 l/m 0,00 h 0,00 h 0 W/m 0,0 km/h (0 Bft) 96,85 %
26.05.2020 05:00 8,8 C 7,0 C 7,1 C 89 % 1035,1 hPa 0,0 l/m 0,00 h 0,00 h 11 W/m 0,0 km/h (0 Bft) 98,51 %
26.05.2020 06:00 8,6 C 8,0 C 7,5 C 91 % 1035,4 hPa 0,0 l/m 0,00 h 0,00 h 27 W/m 0,0 km/h (0 Bft) 97,94 %
26.05.2020 07:00 9,5 C 10,3 C 9,1 C 95 % 1035,6 hPa 0,0 l/m 0,00 h 0,00 h 46 W/m 0,1 km/h (0 Bft) 96,08 %
26.05.2020 08:00 12,1 C 18,3 C 16,6 C 96 % 1035,9 hPa 0,0 l/m 0,07 h 0,00 h 100 W/m 1,0 km/h (0 Bft) 99,27 %
26.05.2020 09:00 16,9 C 22,3 C 24,6 C 78 % 1036,0 hPa 0,0 l/m 1,00 h 0,00 h 542 W/m 4,0 km/h (1 Bft) 98,08 %
26.05.2020 10:00 19,5 C 24,8 C 26,4 C 67 % 1036,0 hPa 0,0 l/m 1,00 h 0,00 h 737 W/m 5,6 km/h (1 Bft) 97,03 %
26.05.2020 11:00 21,3 C 26,9 C 22,2 C 59 % 1035,9 hPa 0,0 l/m 1,00 h 0,00 h 864 W/m 7,2 km/h (2 Bft) 96,44 %
26.05.2020 12:00 23,1 C 29,1 C 22,4 C 54 % 1035,8 hPa 0,0 l/m 1,00 h 0,00 h 946 W/m 6,0 km/h (2 Bft) 96,96 %
26.05.2020 13:00 24,3 C 30,0 C 26,1 C 50 % 1035,4 hPa 0,0 l/m 1,00 h 0,00 h 986 W/m 8,2 km/h (2 Bft) 98,22 %
26.05.2020 14:00 25,3 C 30,1 C 24,9 C 47 % 1035,0 hPa 0,0 l/m 1,00 h 0,00 h 959 W/m 8,7 km/h (2 Bft) 97,12 %
26.05.2020 15:00 25,9 C 30,2 C 22,9 C 46 % 1034,6 hPa 0,0 l/m 1,00 h 0,00 h 891 W/m 7,3 km/h (2 Bft) 97,94 %
26.05.2020 16:00 26,2 C 29,8 C 22,9 C 43 % 1034,3 hPa 0,0 l/m 1,00 h 0,00 h 768 W/m 7,3 km/h (2 Bft) 98,84 %
26.05.2020 17:00 26,4 C 28,8 C 22,7 C 43 % 1034,0 hPa 0,0 l/m 1,00 h 0,00 h 614 W/m 8,4 km/h (2 Bft) 95,54 %
26.05.2020 18:00 25,6 C 26,0 C 21,2 C 44 % 1033,8 hPa 0,0 l/m 1,00 h 0,00 h 434 W/m 5,5 km/h (1 Bft) 97,37 %
26.05.2020 19:00 23,5 C 21,1 C 17,2 C 48 % 1033,7 hPa 0,0 l/m 0,53 h 0,00 h 164 W/m 4,6 km/h (1 Bft) 98,36 %
26.05.2020 20:00 20,5 C 18,3 C 15,9 C 52 % 1033,8 hPa 0,0 l/m 0,00 h 0,00 h 32 W/m 1,5 km/h (1 Bft) 97,71 %
26.05.2020 21:00 19,1 C 16,7 C 14,8 C 57 % 1034,0 hPa 0,0 l/m 0,03 h 0,00 h 14 W/m 0,1 km/h (0 Bft) 97,15 %
26.05.2020 22:00 17,3 C 14,5 C 13,2 C 64 % 1034,3 hPa 0,0 l/m 0,00 h 0,00 h 0 W/m 0,2 km/h (0 Bft) 97,79 %
26.05.2020 23:00 15,4 C 12,6 C 11,8 C 70 % 1034,4 hPa 0,0 l/m 0,00 h 0,00 h 0 W/m 0,0 km/h (0 Bft) 97,72 %
27.05.2020 00:00 13,7 C 11,2 C 10,6 C 75 % 1034,4 hPa 0,0 l/m 0,00 h 0,00 h 0 W/m 0,0 km/h (0 Bft) 98,93 %
27.05.2020 01:00 12,5 C 10,2 C 9,7 C 78 % 1034,3 hPa 0,0 l/m 0,00 h 0,00 h 0 W/m 0,0 km/h (0 Bft) 95,87 %
27.05.2020 02:00 11,5 C 9,7 C 9,1 C 81 % 1034,0 hPa 0,0 l/m 0,00 h 0,00 h 0 W/m 0,0 km/h (0 Bft) 96,30 %
27.05.2020 03:00 10,8 C 8,9 C 8,7 C 83 % 1033,8 hPa 0,0 l/m 0,00 h 0,00 h 0 W/m 0,0 km/h (0 Bft) 98,94 %
27.05.2020 04:00 10,1 C 8,1 C 7,9 C 86 % 1033,7 hPa 0,0 l/m 0,00 h 0,00 h 0 W/m 0,0 km/h (0 Bft) 98,29 %
27.05.2020 05:00 9,5 C 7,8 C 7,6 C 87 % 1033,7 hPa 0,0 l/m 0,00 h 0,00 h 7 W/m 0,0 km/h (0 Bft) 97,58 %
27.05.2020 06:00 9,2 C 8,5 C 7,9 C 89 % 1034,0 hPa 0,0 l/m 0,00 h 0,00 h 19 W/m 0,0 km/h (0 Bft) 95,36 %
27.05.2020 07:00 10,5 C 12,1 C 10,8 C 92 % 1034,1 hPa 0,0 l/m 0,00 h 0,00 h 40 W/m 3,3 km/h (1 Bft) 98,80 %
27.05.2020 08:00 14,7 C 19,4 C 18,6 C 80 % 1034,1 hPa 0,0 l/m 0,07 h 0,00 h 89 W/m 11,5 km/h (2 Bft) 96,73 %
27.05.2020 09:00 18,9 C 23,7 C 27,4 C 68 % 1033,9 hPa 0,0 l/m 1,00 h 0,00 h 555 W/m 6,9 km/h (2 Bft) 95,87 %
27.05.2020 10:00 22,0 C 27,0 C 27,3 C 61 % 1033,8 hPa 0,0 l/m 1,00 h 0,00 h 720 W/m 4,0 km/h (1 Bft) 96,25 %
27.05.2020 11:00 23,9 C 29,5 C 23,4 C 56 % 1033,6 hPa 0,0 l/m 1,00 h 0,00 h 845 W/m 3,8 km/h (1 Bft) 99,15 %
27.05.2020 12:00 25,1 C 30,1 C 23,9 C 49 % 1033,2 hPa 0,0 l/m 1,00 h 0,00 h 916 W/m 7,9 km/h (2 Bft) 98,60 %
27.05.2020 13:00 26,3 C 32,0 C 27,2 C 48 % 1032,9 hPa 0,0 l/m 0,97 h 0,00 h 937 W/m 7,6 km/h (2 Bft) 95,20 %
27.05.2020 14:00 25,5 C 27,4 C 24,2 C 52 % 1032,6 hPa 0,0 l/m 0,67 h 0,00 h 454 W/m 7,2 km/h (2 Bft) 99,32 %
27.05.2020 15:00 26,1 C 29,7 C 23,9 C 52 % 1032,2 hPa 0,0 l/m 0,93 h 0,00 h 674 W/m 7,8 km/h (2 Bft) 98,79 %
27.05.2020 16:00 25,6 C 27,9 C 22,7 C 54 % 1031,8 hPa 0,0 l/m 0,67 h 0,00 h 532 W/m 7,5 km/h (2 Bft) 94,92 %
27.05.2020 17:00 25,9 C 28,0 C 22,8 C 54 % 1031,5 hPa 0,0 l/m 0,83 h 0,00 h 500 W/m 8,4 km/h (2 Bft) 99,37 %
27.05.2020 18:00 25,6 C 26,1 C 21,8 C 52 % 1031,2 hPa 0,0 l/m 0,97 h 0,00 h 412 W/m 11,1 km/h (2 Bft) 98,07 %
27.05.2020 19:00 23,6 C 22,1 C 20,1 C 54 % 1031,1 hPa 0,0 l/m 0,57 h 0,00 h 173 W/m 9,8 km/h (2 Bft) 96,22 %
27.05.2020 20:00 21,1 C 19,2 C 18,5 C 58 % 1031,2 hPa 0,0 l/m 0,00 h 0,00 h 36 W/m 6,8 km/h (2 Bft) 98,08 %
27.05.2020 21:00 19,4 C 17,4 C 17,2 C 63 % 1031,6 hPa 0,0 l/m 0,00 h 0,00 h 9 W/m 6,5 km/h (2 Bft) 97,72 %
27.05.2020 22:00 17,9 C 16,1 C 16,0 C 68 % 1032,3 hPa 0,0 l/m 0,00 h 0,00 h 0 W/m 6,6 km/h (2 Bft) 97,07 %
27.05.2020 23:00 16,6 C 14,9 C 15,1 C 73 % 1032,8 hPa 0,0 l/m 0,00 h 0,00 h 0 W/m 6,9 km/h (2 Bft) 96,85 %
28.05.2020 00:00 15,6 C 14,4 C 14,4 C 74 % 1033,0 hPa 0,0 l/m 0,00 h 0,00 h 0 W/m 4,6 km/h (1 Bft) 96,50 %
28.05.2020 01:00 15,1 C 13,9 C 14,0 C 70 % 1033,3 hPa 0,0 l/m 0,00 h 0,00 h 0 W/m 4,8 km/h (1 Bft) 98,71 %
28.05.2020 02:00 13,5 C 11,7 C 12,3 C 66 % 1033,5 hPa 0,0 l/m 0,00 h 0,00 h 0 W/m 5,5 km/h (1 Bft) 98,73 %
28.05.2020 03:00 11,9 C 10,0 C 10,8 C 73 % 1033,6 hPa 0,0 l/m 0,00 h 0,00 h 0 W/m 4,6 km/h (1 Bft) 94,13 %
28.05.2020 04:00 10,8 C 9,3 C 10,0 C 79 % 1033,7 hPa 0,0 l/m 0,00 h 0,00 h 0 W/m 3,3 km/h (1 Bft) 98,52 %
28.05.2020 05:00 10,1 C 8,7 C 9,3 C 83 % 1034,0 hPa 0,0 l/m 0,00 h 0,00 h 8 W/m 3,2 km/h (1 Bft) 97,71 %
28.05.2020 06:00 9,7 C 8,8 C 9,1 C 86 % 1034,3 hPa 0,0 l/m 0,00 h 0,00 h 20 W/m 2,2 km/h (1 Bft) 97,64 %
28.05.2020 07:00 10,2 C 10,3 C 9,9 C 87 % 1034,3 hPa 0,0 l/m 0,00 h 0,00 h 37 W/m 6,5 km/h (2 Bft) 97,01 %
28.05.2020 08:00 12,8 C 17,6 C 17,9 C 78 % 1034,4 hPa 0,0 l/m 0,07 h 0,00 h 82 W/m 10,1 km/h (2 Bft) 95,40 %
28.05.2020 09:00 16,4 C 21,0 C 25,9 C 64 % 1034,4 hPa 0,0 l/m 1,00 h 0,00 h 578 W/m 9,0 km/h (2 Bft) 98,86 %
28.05.2020 10:00 18,9 C 23,7 C 26,1 C 58 % 1034,2 hPa 0,0 l/m 1,02 h 0,00 h 743 W/m 8,7 km/h (2 Bft) 98,62 %
28.05.2020 11:00 20,5 C 25,4 C 21,9 C 55 % 1033,9 hPa 0,0 l/m 0,98 h 0,00 h 869 W/m 9,2 km/h (2 Bft) 97,02 %
28.05.2020 12:00 22,1 C 27,4 C 22,5 C 50 % 1033,4 hPa 0,0 l/m 1,00 h 0,00 h 954 W/m 9,5 km/h (2 Bft) 99,36 %
28.05.2020 13:00 23,4 C 28,5 C 26,0 C 45 % 1032,7 hPa 0,0 l/m 1,00 h 0,00 h 990 W/m 11,2 km/h (2 Bft) 96,14 %
28.05.2020 14:00 24,4 C 29,1 C 24,4 C 43 % 1032,1 hPa 0,0 l/m 1,00 h 0,00 h 971 W/m 9,1 km/h (2 Bft) 96,40 %
28.05.2020 15:00 25,0 C 29,2 C 22,8 C 42 % 1031,6 hPa 0,0 l/m 1,00 h 0,00 h 898 W/m 9,3 km/h (2 Bft) 99,79 %
28.05.2020 16:00 25,2 C 28,6 C 22,2 C 42 % 1031,1 hPa 0,0 l/m 1,00 h 0,00 h 783 W/m 7,3 km/h (2 Bft) 96,58 %
28.05.2020 17:00 25,0 C 27,2 C 22,0 C 41 % 1030,6 hPa 0,0 l/m 1,00 h 0,00 h 630 W/m 9,5 km/h (2 Bft) 96,73 %
28.05.2020 18:00 24,1 C 24,6 C 20,6 C 42 % 1030,2 hPa 0,0 l/m 1,00 h 0,00 h 449 W/m 7,5 km/h (2 Bft) 98,72 %
28.05.2020 19:00 22,1 C 20,4 C 18,3 C 44 % 1029,8 hPa 0,0 l/m 0,57 h 0,00 h 192 W/m 7,3 km/h (2 Bft) 96,62 %
28.05.2020 20:00 19,2 C 17,0 C 15,8 C 51 % 1029,6 hPa 0,0 l/m 0,00 h 0,00 h 30 W/m 4,8 km/h (1 Bft) 97,45 %
28.05.2020 21:00 17,2 C 15,3 C 14,5 C 54 % 1029,7 hPa 0,0 l/m 0,00 h 0,00 h 8 W/m 2,6 km/h (1 Bft) 97,72 %
28.05.2020 22:00 15,8 C 14,1 C 13,8 C 58 % 1030,1 hPa 0,0 l/m 0,00 h 0,00 h 0 W/m 4,3 km/h (1 Bft) 96,80 %
28.05.2020 23:00 14,6 C 13,0 C 13,0 C 61 % 1030,2 hPa 0,0 l/m 0,00 h 0,00 h 0 W/m 3,6 km/h (1 Bft) 99,65 %
29.05.2020 00:00 13,5 C 11,8 C 11,8 C 65 % 1030,4 hPa 0,0 l/m 0,00 h 0,00 h 0 W/m 3,4 km/h (1 Bft) 92,99 %
29.05.2020 01:00 12,4 C 10,7 C 10,8 C 68 % 1030,4 hPa 0,0 l/m 0,00 h 0,00 h 0 W/m 1,8 km/h (1 Bft) 96,72 %
29.05.2020 02:00 11,4 C 10,0 C 10,0 C 71 % 1030,3 hPa 0,0 l/m 0,00 h 0,00 h 0 W/m 2,0 km/h (1 Bft) 98,08 %
29.05.2020 03:00 10,8 C 9,6 C 9,7 C 73 % 1030,1 hPa 0,0 l/m 0,00 h 0,00 h 0 W/m 2,1 km/h (1 Bft) 98,71 %
29.05.2020 04:00 10,2 C 8,5 C 8,4 C 75 % 1029,9 hPa 0,0 l/m 0,00 h 0,00 h 0 W/m 0,4 km/h (0 Bft) 94,69 %
29.05.2020 05:00 9,3 C 7,4 C 7,4 C 78 % 1029,6 hPa 0,0 l/m 0,00 h 0,00 h 7 W/m 0,0 km/h (0 Bft) 96,14 %
29.05.2020 06:00 8,8 C 8,0 C 7,4 C 83 % 1029,7 hPa 0,0 l/m 0,00 h 0,00 h 20 W/m 0,1 km/h (0 Bft) 97,57 %
29.05.2020 07:00 9,4 C 10,0 C 9,2 C 86 % 1029,7 hPa 0,0 l/m 0,00 h 0,00 h 38 W/m 2,7 km/h (1 Bft) 97,93 %
29.05.2020 08:00 12,7 C 18,7 C 17,5 C 82 % 1029,6 hPa 0,0 l/m 0,03 h 0,00 h 81 W/m 2,5 km/h (1 Bft) 97,15 %
29.05.2020 09:00 17,2 C 22,1 C 24,5 C 66 % 1029,4 hPa 0,0 l/m 1,00 h 0,00 h 564 W/m 3,5 km/h (1 Bft) 95,02 %
29.05.2020 10:00 19,9 C 25,0 C 26,7 C 59 % 1029,3 hPa 0,0 l/m 1,02 h 0,00 h 739 W/m 4,2 km/h (1 Bft) 97,32 %
29.05.2020 11:00 22,1 C 27,4 C 22,6 C 51 % 1028,9 hPa 0,0 l/m 0,98 h 0,00 h 868 W/m 6,8 km/h (2 Bft) 97,60 %
29.05.2020 12:00 24,0 C 29,5 C 23,2 C 47 % 1028,2 hPa 0,0 l/m 1,00 h 0,00 h 956 W/m 5,9 km/h (2 Bft) 97,85 %
29.05.2020 13:00 24,9 C 30,0 C 26,8 C 44 % 1027,6 hPa 0,0 l/m 1,00 h 0,00 h 975 W/m 8,2 km/h (2 Bft) 99,37 %
29.05.2020 14:00 25,7 C 30,3 C 25,2 C 43 % 1026,8 hPa 0,0 l/m 1,00 h 0,00 h 957 W/m 7,9 km/h (2 Bft) 95,39 %
29.05.2020 15:00 26,0 C 29,5 C 23,9 C 42 % 1026,1 hPa 0,0 l/m 1,00 h 0,00 h 885 W/m 9,5 km/h (2 Bft) 97,88 %
29.05.2020 16:00 26,3 C 29,3 C 23,7 C 41 % 1025,4 hPa 0,0 l/m 1,02 h 0,00 h 766 W/m 8,3 km/h (2 Bft) 99,19 %
29.05.2020 17:00 26,1 C 27,8 C 22,9 C 40 % 1024,9 hPa 0,0 l/m 0,98 h 0,00 h 618 W/m 8,8 km/h (2 Bft) 96,01 %
29.05.2020 18:00 25,1 C 25,1 C 21,3 C 41 % 1024,4 hPa 0,0 l/m 1,00 h 0,00 h 433 W/m 8,4 km/h (2 Bft) 97,86 %
29.05.2020 19:00 23,3 C 21,5 C 19,5 C 40 % 1024,0 hPa 0,0 l/m 0,53 h 0,00 h 181 W/m 8,2 km/h (2 Bft) 97,37 %
29.05.2020 20:00 20,8 C 18,6 C 17,8 C 42 % 1023,8 hPa 0,0 l/m 0,00 h 0,00 h 30 W/m 3,7 km/h (1 Bft) 97,75 %
29.05.2020 21:00 18,8 C 16,2 C 15,7 C 46 % 1023,8 hPa 0,0 l/m 0,00 h 0,00 h 10 W/m 1,1 km/h (0 Bft) 98,42 %
29.05.2020 22:00 16,8 C 14,3 C 13,7 C 51 % 1024,0 hPa 0,0 l/m 0,00 h 0,00 h 0 W/m 0,1 km/h (0 Bft) 94,37 %
29.05.2020 23:00 15,4 C 13,4 C 12,6 C 57 % 1024,2 hPa 0,0 l/m 0,00 h 0,00 h 0 W/m 0,1 km/h (0 Bft) 99,08 %
30.05.2020 00:00 14,3 C 12,4 C 11,9 C 61 % 1024,3 hPa 0,0 l/m 0,00 h 0,00 h 0 W/m 0,0 km/h (0 Bft) 99,04 %
30.05.2020 01:00 13,1 C 11,3 C 10,9 C 66 % 1024,6 hPa 0,0 l/m 0,00 h 0,00 h 0 W/m 0,1 km/h (0 Bft) 96,63 %
30.05.2020 02:00 12,2 C 10,6 C 10,1 C 68 % 1024,7 hPa 0,0 l/m 0,00 h 0,00 h 0 W/m 0,0 km/h (0 Bft) 96,08 %
30.05.2020 03:00 11,4 C 9,7 C 9,4 C 71 % 1024,6 hPa 0,0 l/m 0,00 h 0,00 h 0 W/m 0,2 km/h (0 Bft) 98,76 %
30.05.2020 04:00 10,6 C 8,6 C 8,3 C 73 % 1024,6 hPa 0,0 l/m 0,00 h 0,00 h 0 W/m 0,0 km/h (0 Bft) 97,08 %
30.05.2020 05:00 9,8 C 8,2 C 7,8 C 75 % 1024,7 hPa 0,0 l/m 0,00 h 0,00 h 8 W/m 0,1 km/h (0 Bft) 98,17 %
30.05.2020 06:00 9,5 C 9,4 C 8,3 C 79 % 1024,7 hPa 0,0 l/m 0,00 h 0,00 h 19 W/m 0,4 km/h (0 Bft) 96,79 %
30.05.2020 07:00 10,4 C 11,4 C 9,5 C 82 % 1024,8 hPa 0,0 l/m 0,00 h 0,00 h 35 W/m 1,3 km/h (1 Bft) 95,27 %
30.05.2020 08:00 14,2 C 20,9 C 18,3 C 74 % 1025,0 hPa 0,0 l/m 0,03 h 0,00 h 74 W/m 4,4 km/h (1 Bft) 99,50 %
30.05.2020 09:00 19,9 C 25,1 C 27,8 C 59 % 1024,9 hPa 0,0 l/m 1,00 h 0,00 h 560 W/m 5,2 km/h (1 Bft) 96,02 %
30.05.2020 10:00 22,8 C 27,5 C 29,5 C 50 % 1024,5 hPa 0,0 l/m 1,00 h 0,00 h 736 W/m 6,6 km/h (2 Bft) 96,51 %
30.05.2020 11:00 24,1 C 28,1 C 25,4 C 44 % 1024,2 hPa 0,0 l/m 1,00 h 0,00 h 847 W/m 11,7 km/h (2 Bft) 98,87 %
30.05.2020 12:00 25,1 C 30,0 C 25,3 C 43 % 1023,8 hPa 0,0 l/m 1,00 h 0,00 h 951 W/m 11,7 km/h (2 Bft) 96,29 %
30.05.2020 13:00 25,9 C 30,3 C 28,0 C 41 % 1023,4 hPa 0,0 l/m 1,00 h 0,00 h 980 W/m 11,5 km/h (2 Bft) 99,22 %
30.05.2020 14:00 25,9 C 29,4 C 25,6 C 41 % 1023,0 hPa 0,0 l/m 0,93 h 0,00 h 895 W/m 11,5 km/h (2 Bft) 96,73 %
30.05.2020 15:00 25,9 C 29,5 C 24,5 C 41 % 1022,6 hPa 0,0 l/m 0,97 h 0,00 h 856 W/m 10,9 km/h (2 Bft) 97,73 %
30.05.2020 16:00 26,7 C 29,7 C 24,4 C 39 % 1022,1 hPa 0,0 l/m 1,00 h 0,00 h 769 W/m 9,3 km/h (2 Bft) 98,21 %
30.05.2020 17:00 26,7 C 28,2 C 23,6 C 37 % 1021,7 hPa 0,0 l/m 1,00 h 0,00 h 621 W/m 11,3 km/h (2 Bft) 96,20 %
30.05.2020 18:00 25,3 C 25,1 C 21,8 C 40 % 1021,5 hPa 0,0 l/m 1,00 h 0,00 h 439 W/m 11,1 km/h (2 Bft) 99,39 %
30.05.2020 19:00 23,1 C 21,2 C 19,2 C 43 % 1021,5 hPa 0,0 l/m 0,53 h 0,00 h 177 W/m 10,5 km/h (2 Bft) 96,24 %
30.05.2020 20:00 20,4 C 18,7 C 16,7 C 48 % 1021,6 hPa 0,0 l/m 0,00 h 0,00 h 30 W/m 9,5 km/h (2 Bft) 97,44 %
30.05.2020 21:00 18,8 C 16,8 C 15,9 C 50 % 1022,0 hPa 0,0 l/m 0,00 h 0,00 h 10 W/m 3,2 km/h (1 Bft) 99,78 %
30.05.2020 22:00 17,0 C 14,4 C 13,9 C 55 % 1022,5 hPa 0,0 l/m 0,00 h 0,00 h 0 W/m 0,3 km/h (0 Bft) 95,18 %
30.05.2020 23:00 15,3 C 13,1 C 12,6 C 58 % 1022,5 hPa 0,0 l/m 0,00 h 0,00 h 0 W/m 0,0 km/h (0 Bft) 97,31 %
31.05.2020 00:00 14,1 C 12,4 C 11,9 C 62 % 1022,6 hPa 0,0 l/m 0,00 h 0,00 h 0 W/m 0,0 km/h (0 Bft) 98,96 %
31.05.2020 01:00 13,2 C 11,4 C 10,8 C 65 % 1022,7 hPa 0,0 l/m 0,00 h 0,00 h 0 W/m 0,0 km/h (0 Bft) 97,35 %
31.05.2020 02:00 12,4 C 10,9 C 10,3 C 69 % 1022,6 hPa 0,0 l/m 0,00 h 0,00 h 0 W/m 0,0 km/h (0 Bft) 97,22 %
31.05.2020 03:00 11,9 C 10,8 C 10,0 C 72 % 1022,6 hPa 0,0 l/m 0,00 h 0,00 h 0 W/m 0,0 km/h (0 Bft) 96,73 %
31.05.2020 04:00 11,5 C 9,9 C 9,6 C 74 % 1022,5 hPa 0,0 l/m 0,00 h 0,00 h 0 W/m 0,3 km/h (0 Bft) 97,05 %
31.05.2020 05:00 10,8 C 9,5 C 9,4 C 76 % 1022,6 hPa 0,0 l/m 0,00 h 0,00 h 6 W/m 0,4 km/h (0 Bft) 97,90 %
31.05.2020 06:00 10,4 C 9,5 C 9,1 C 79 % 1022,8 hPa 0,0 l/m 0,00 h 0,00 h 16 W/m 0,9 km/h (0 Bft) 98,46 %
31.05.2020 07:00 10,9 C 11,7 C 10,7 C 81 % 1023,1 hPa 0,0 l/m 0,00 h 0,00 h 53 W/m 2,6 km/h (1 Bft) 95,66 %
31.05.2020 08:00 13,6 C 17,5 C 17,0 C 75 % 1023,3 hPa 0,0 l/m 0,00 h 0,00 h 126 W/m 6,9 km/h (2 Bft) 99,29 %
31.05.2020 09:00 16,9 C 20,7 C 24,0 C 61 % 1023,3 hPa 0,0 l/m 1,00 h 0,00 h 505 W/m 10,8 km/h (2 Bft) 97,60 %
31.05.2020 10:00 18,6 C 22,0 C 24,0 C 57 % 1023,3 hPa 0,0 l/m 1,00 h 0,00 h 607 W/m 11,3 km/h (2 Bft) 94,95 %
31.05.2020 11:00 20,2 C 24,7 C 22,2 C 55 % 1023,1 hPa 0,0 l/m 1,00 h 0,00 h 822 W/m 12,1 km/h (2 Bft) 97,57 %
31.05.2020 12:00 21,8 C 26,0 C 22,4 C 49 % 1022,8 hPa 0,0 l/m 1,00 h 0,00 h 923 W/m 16,2 km/h (3 Bft) 97,72 %
31.05.2020 13:00 22,6 C 26,8 C 25,4 C 47 % 1022,5 hPa 0,0 l/m 1,00 h 0,00 h 970 W/m 15,3 km/h (3 Bft) 97,58 %
31.05.2020 14:00 23,7 C 28,0 C 23,7 C 47 % 1022,2 hPa 0,0 l/m 1,00 h 0,00 h 946 W/m 11,3 km/h (2 Bft) 98,01 %
31.05.2020 15:00 24,4 C 27,8 C 22,8 C 46 % 1021,9 hPa 0,0 l/m 1,00 h 0,00 h 864 W/m 13,6 km/h (3 Bft) 97,33 %
31.05.2020 16:00 24,6 C 27,0 C 22,7 C 46 % 1021,6 hPa 0,0 l/m 0,90 h 0,00 h 707 W/m 10,6 km/h (2 Bft) 97,64 %
31.05.2020 17:00 24,0 C 25,7 C 21,6 C 47 % 1021,5 hPa 0,0 l/m 0,97 h 0,00 h 574 W/m 9,8 km/h (2 Bft) 97,37 %
31.05.2020 18:00 23,2 C 23,1 C 20,2 C 47 % 1021,3 hPa 0,0 l/m 1,00 h 0,00 h 380 W/m 9,7 km/h (2 Bft) 97,45 %
31.05.2020 19:00 21,6 C 20,3 C 18,8 C 50 % 1021,3 hPa 0,0 l/m 0,53 h 0,00 h 178 W/m 9,0 km/h (2 Bft) 97,80 %
31.05.2020 20:00 19,7 C 18,0 C 17,6 C 53 % 1021,5 hPa 0,0 l/m 0,00 h 0,00 h 41 W/m 6,5 km/h (2 Bft) 97,74 %
31.05.2020 21:00 18,3 C 16,1 C 15,9 C 57 % 1021,7 hPa 0,0 l/m 0,00 h 0,00 h 12 W/m 2,5 km/h (1 Bft) 97,96 %
31.05.2020 22:00 16,6 C 14,4 C 14,2 C 62 % 1022,1 hPa 0,0 l/m 0,00 h 0,00 h 0 W/m 0,3 km/h (0 Bft) 98,38 %
31.05.2020 23:00 15,4 C 13,8 C 13,3 C 66 % 1022,3 hPa 0,0 l/m 0,00 h 0,00 h 0 W/m 0,3 km/h (0 Bft) 94,66 %
Min-Datum _ 26.05.20 26.05.20 26.05.20 30.05.20 31.05.20 - - - - 25.05.20 29.05.20
_ Min-Zeit 05:54 05:10 05:26 17:12 18:34 - - - - 00:00 00:02
Minimum _ 8,6 C 6,7 C 6,7 C 34 % 1021,2 hPa - - - - 0,0 km/h (0 Bft) 9,52 %
Max-Datum _ 30.05.20 27.05.20 30.05.20 25.05.20 26.05.20 25.05.20 27.05.20 25.05.20 27.05.20 30.05.20 25.05.20
_ Max-Zeit 16:56 13:20 13:44 01:00 08:56 00:00 12:08 00:50 15:04 17:52 00:08
Maximum _ 26,9 C 33,3 C 33,3 C 97 % 1036,1 hPa 0,0 l/m 0,07 h 0,03 h 1135 W/m 29,0 km/h
W-SW (5 Bft)
100,00 %
Durchschnitt _ 17,8 C 18,7 C 17,0 C 64 % 1029,5 hPa #0,0 l/m #67:12 h #4 min. 434 W/m 5,1 km/h (1 Bft) 97,40 %
© 2020 W. Hausmann